createdAt,value
2022-11-07T00:00:54.420Z,24.3
2022-11-07T00:01:56.780Z,24.3
2022-11-07T00:02:59.782Z,24.3
2022-11-07T00:04:02.607Z,24.3
2022-11-07T00:05:05.087Z,24.3
2022-11-07T00:06:07.010Z,24.3
2022-11-07T00:07:08.932Z,24.3
2022-11-07T00:08:11.404Z,24.3
2022-11-07T00:09:13.605Z,24.3
2022-11-07T00:10:16.083Z,24.3
2022-11-07T00:11:18.572Z,24.4
2022-11-07T00:12:21.043Z,24.4
2022-11-07T00:13:23.241Z,24.4
2022-11-07T00:14:25.416Z,24.4
2022-11-07T00:15:27.626Z,24.4
2022-11-07T00:16:29.655Z,24.4
2022-11-07T00:17:32.126Z,24.4
2022-11-07T00:18:34.676Z,24.4
2022-11-07T00:19:37.342Z,24.4
2022-11-07T00:20:39.814Z,24.5
2022-11-07T00:21:42.005Z,24.4
2022-11-07T00:22:44.295Z,24.4
2022-11-07T00:23:46.759Z,24.5
2022-11-07T00:24:48.965Z,24.4
2022-11-07T00:25:50.879Z,24.4
2022-11-07T00:26:53.540Z,24.4
2022-11-07T00:27:56.131Z,24.4
2022-11-07T00:28:58.607Z,24.4
2022-11-07T00:30:00.799Z,24.4
2022-11-07T00:31:02.988Z,24.4
2022-11-07T00:32:05.454Z,24.4
2022-11-07T00:33:07.360Z,24.5
2022-11-07T00:34:09.626Z,24.5
2022-11-07T00:35:11.851Z,24.5
2022-11-07T00:36:14.318Z,24.5
2022-11-07T00:37:16.793Z,24.5
2022-11-07T00:38:19.657Z,24.5
2022-11-07T00:39:22.123Z,24.5
2022-11-07T00:40:24.319Z,24.6
2022-11-07T00:41:26.822Z,24.6
2022-11-07T00:42:29.306Z,24.6
2022-11-07T00:43:31.781Z,24.6
2022-11-07T00:44:33.985Z,24.6
2022-11-07T00:45:35.885Z,24.6
2022-11-07T00:46:38.082Z,24.6
2022-11-07T00:47:40.550Z,24.6
2022-11-07T00:48:42.739Z,24.6
2022-11-07T00:49:45.210Z,24.6
2022-11-07T00:50:47.811Z,24.6
2022-11-07T00:51:50.293Z,24.6
2022-11-07T00:52:52.765Z,24.6
2022-11-07T00:53:55.272Z,24.6
2022-11-07T00:54:57.487Z,24.6
2022-11-07T00:55:59.411Z,24.6
2022-11-07T00:57:01.891Z,24.6
2022-11-07T00:58:04.098Z,24.6
2022-11-07T00:59:10.273Z,24.6
2022-11-07T01:00:12.736Z,24.6
2022-11-07T01:01:15.382Z,24.6
2022-11-07T01:02:18.467Z,24.6
2022-11-07T01:03:20.937Z,24.6
2022-11-07T01:04:23.399Z,24.6
2022-11-07T01:05:26.084Z,24.6
2022-11-07T01:06:28.321Z,24.7
2022-11-07T01:07:30.250Z,24.7
2022-11-07T01:08:32.444Z,24.7
2022-11-07T01:09:34.651Z,24.7
2022-11-07T01:10:36.843Z,24.7
2022-11-07T01:11:39.039Z,24.7
2022-11-07T01:12:40.711Z,24.7
2022-11-07T01:13:43.204Z,24.7
2022-11-07T01:14:45.135Z,24.7
2022-11-07T01:15:47.320Z,24.7
2022-11-07T01:16:50.073Z,24.7
2022-11-07T01:17:52.544Z,24.7
2022-11-07T01:18:55.017Z,24.8
2022-11-07T01:19:57.531Z,24.8
2022-11-07T01:20:59.564Z,24.8
2022-11-07T01:22:02.098Z,24.8
2022-11-07T01:23:04.004Z,24.8
2022-11-07T01:24:06.492Z,24.8
2022-11-07T01:25:08.960Z,24.8
2022-11-07T01:26:11.180Z,24.8
2022-11-07T01:27:13.367Z,24.8
2022-11-07T01:28:15.565Z,24.8
2022-11-07T01:29:18.065Z,24.9
2022-11-07T01:30:19.984Z,24.9
2022-11-07T01:31:22.465Z,24.9
2022-11-07T01:32:24.673Z,24.9
2022-11-07T01:33:27.137Z,24.9
2022-11-07T01:34:29.333Z,24.9
2022-11-07T01:35:31.558Z,24.9
2022-11-07T01:36:33.863Z,24.9
2022-11-07T01:37:36.184Z,24.9
2022-11-07T01:38:38.676Z,24.9
2022-11-07T01:39:40.601Z,24.9
2022-11-07T01:40:43.073Z,24.9
2022-11-07T01:41:45.534Z,24.9
2022-11-07T01:42:48.003Z,24.9
2022-11-07T01:43:50.176Z,24.9
2022-11-07T01:44:52.684Z,24.9
2022-11-07T01:45:54.893Z,24.9
2022-11-07T01:46:57.121Z,24.9
2022-11-07T01:47:59.295Z,24.9
2022-11-07T01:49:01.205Z,24.9
2022-11-07T01:50:03.685Z,24.9
2022-11-07T01:51:05.860Z,24.9
2022-11-07T01:52:08.096Z,24.9
2022-11-07T01:53:11.119Z,25
2022-11-07T01:54:13.876Z,25
2022-11-07T01:55:15.834Z,25
2022-11-07T01:56:18.033Z,25
2022-11-07T01:57:20.225Z,25
2022-11-07T01:58:22.695Z,25
2022-11-07T01:59:24.889Z,25
2022-11-07T02:00:27.191Z,25
2022-11-07T02:01:29.772Z,25
2022-11-07T02:02:32.744Z,25
2022-11-07T02:03:35.587Z,25
2022-11-07T02:04:37.792Z,25
2022-11-07T02:05:39.997Z,25
2022-11-07T02:06:42.202Z,25
2022-11-07T02:07:44.734Z,25
2022-11-07T02:08:47.242Z,25
2022-11-07T02:09:49.440Z,25
2022-11-07T02:10:51.912Z,25
2022-11-07T02:11:54.110Z,25
2022-11-07T02:12:56.305Z,25
2022-11-07T02:13:58.778Z,25
2022-11-07T02:15:00.679Z,25
2022-11-07T02:16:03.182Z,25
2022-11-07T02:17:05.648Z,25
2022-11-07T02:18:07.569Z,25
2022-11-07T02:19:10.052Z,25
2022-11-07T02:20:12.252Z,25
2022-11-07T02:21:14.453Z,25
2022-11-07T02:22:16.950Z,25
2022-11-07T02:23:18.957Z,25
2022-11-07T02:24:21.506Z,25
2022-11-07T02:25:23.715Z,25
2022-11-07T02:26:25.685Z,25
2022-11-07T02:27:27.889Z,25
2022-11-07T02:28:30.353Z,25
2022-11-07T02:29:32.284Z,25
2022-11-07T02:30:34.504Z,25
2022-11-07T02:31:37.034Z,25
2022-11-07T02:32:39.218Z,25
2022-11-07T02:33:41.424Z,25
2022-11-07T02:34:43.905Z,25
2022-11-07T02:35:45.832Z,25
2022-11-07T02:36:48.025Z,25
2022-11-07T02:37:50.500Z,25
2022-11-07T02:38:53.077Z,25
2022-11-07T02:39:55.589Z,25
2022-11-07T02:40:57.501Z,25
2022-11-07T02:41:59.972Z,25
2022-11-07T02:43:02.165Z,25
2022-11-07T02:44:04.635Z,25
2022-11-07T02:45:07.100Z,25
2022-11-07T02:46:09.304Z,25
2022-11-07T02:47:11.559Z,25
2022-11-07T02:48:13.753Z,25
2022-11-07T02:49:15.953Z,25
2022-11-07T02:50:18.168Z,25
2022-11-07T02:51:20.081Z,25
2022-11-07T02:52:22.006Z,25
2022-11-07T02:53:24.484Z,25
2022-11-07T02:54:26.999Z,25
2022-11-07T02:55:29.497Z,25
2022-11-07T02:56:31.396Z,25
2022-11-07T02:57:33.595Z,25
2022-11-07T02:58:36.069Z,25
2022-11-07T02:59:38.003Z,25
2022-11-07T03:00:39.657Z,25
2022-11-07T03:01:42.094Z,25
2022-11-07T03:02:45.188Z,25
2022-11-07T03:03:48.059Z,25
2022-11-07T03:04:50.251Z,25
2022-11-07T03:05:52.453Z,25
2022-11-07T03:06:54.361Z,25
2022-11-07T03:07:56.579Z,25
2022-11-07T03:08:59.048Z,25
2022-11-07T03:10:01.777Z,25
2022-11-07T03:11:04.025Z,25
2022-11-07T03:12:06.498Z,25
2022-11-07T03:13:08.688Z,25
2022-11-07T03:14:10.893Z,25
2022-11-07T03:15:12.673Z,25
2022-11-07T03:16:14.861Z,25
2022-11-07T03:17:17.052Z,25
2022-11-07T03:18:19.361Z,25
2022-11-07T03:19:21.825Z,25
2022-11-07T03:20:23.183Z,25
2022-11-07T03:21:25.654Z,25
2022-11-07T03:22:28.146Z,25
2022-11-07T03:23:30.046Z,25
2022-11-07T03:24:32.529Z,25
2022-11-07T03:25:34.881Z,25
2022-11-07T03:26:37.641Z,25
2022-11-07T03:27:39.555Z,25
2022-11-07T03:28:41.761Z,25
2022-11-07T03:29:43.933Z,25
2022-11-07T03:30:46.415Z,25.1
2022-11-07T03:31:48.610Z,25
2022-11-07T03:32:51.086Z,25
2022-11-07T03:33:53.570Z,25.1
2022-11-07T03:34:55.768Z,25.1
2022-11-07T03:35:57.961Z,25
2022-11-07T03:37:00.151Z,25.1
2022-11-07T03:38:02.377Z,25.1
2022-11-07T03:39:04.843Z,25.1
2022-11-07T03:40:07.316Z,25.1
2022-11-07T03:41:09.830Z,25.1
2022-11-07T03:42:12.475Z,25.1
2022-11-07T03:43:15.818Z,25.1
2022-11-07T03:44:19.474Z,25.1
2022-11-07T03:45:21.417Z,25.1
2022-11-07T03:46:23.618Z,25.1
2022-11-07T03:47:25.517Z,25.1
2022-11-07T03:48:27.988Z,25.1
2022-11-07T03:49:29.989Z,25.1
2022-11-07T03:50:32.164Z,25.1
2022-11-07T03:51:34.631Z,25.1
2022-11-07T03:52:36.830Z,25.1
2022-11-07T03:53:39.290Z,25.1
2022-11-07T03:54:41.764Z,25.1
2022-11-07T03:55:44.051Z,25.1
2022-11-07T03:56:46.088Z,25.1
2022-11-07T03:57:48.641Z,25.1
2022-11-07T03:58:50.319Z,25.1
2022-11-07T03:59:52.489Z,25.1
2022-11-07T04:00:54.963Z,25.1
2022-11-07T04:01:57.985Z,25.1
2022-11-07T04:03:00.973Z,25.1
2022-11-07T04:04:03.911Z,25.1
2022-11-07T04:05:06.140Z,25
2022-11-07T04:06:08.320Z,25
2022-11-07T04:07:10.517Z,25
2022-11-07T04:08:12.995Z,25
2022-11-07T04:09:15.474Z,25
2022-11-07T04:10:17.411Z,24.9
2022-11-07T04:11:19.329Z,24.9
2022-11-07T04:12:21.844Z,24.9
2022-11-07T04:13:24.540Z,24.9
2022-11-07T04:14:27.012Z,24.9
2022-11-07T04:15:29.213Z,24.8
2022-11-07T04:16:31.684Z,24.8
2022-11-07T04:17:34.162Z,24.8
2022-11-07T04:18:36.369Z,24.8
2022-11-07T04:19:38.847Z,24.8
2022-11-07T04:20:41.329Z,24.8
2022-11-07T04:21:43.548Z,24.7
2022-11-07T04:22:46.011Z,24.7
2022-11-07T04:23:48.487Z,24.7
2022-11-07T04:24:50.683Z,24.7
2022-11-07T04:25:52.594Z,24.7
2022-11-07T04:26:54.517Z,24.7
2022-11-07T04:27:57.041Z,24.7
2022-11-07T04:28:59.530Z,24.7
2022-11-07T04:30:01.431Z,24.7
2022-11-07T04:31:03.895Z,24.7
2022-11-07T04:32:06.355Z,24.7
2022-11-07T04:33:08.839Z,24.7
2022-11-07T04:34:11.049Z,24.7
2022-11-07T04:35:12.672Z,24.6
2022-11-07T04:36:15.187Z,24.6
2022-11-07T04:37:17.103Z,24.6
2022-11-07T04:38:19.030Z,24.6
2022-11-07T04:39:21.283Z,24.6
2022-11-07T04:40:23.854Z,24.6
2022-11-07T04:41:26.083Z,24.6
2022-11-07T04:42:28.260Z,24.6
2022-11-07T04:43:30.772Z,24.6
2022-11-07T04:44:33.274Z,24.6
2022-11-07T04:45:35.463Z,24.6
2022-11-07T04:46:37.973Z,24.6
2022-11-07T04:47:41.565Z,24.6
2022-11-07T04:48:44.087Z,24.6
2022-11-07T04:49:46.581Z,24.6
2022-11-07T04:50:49.055Z,24.6
2022-11-07T04:51:51.882Z,24.6
2022-11-07T04:52:54.433Z,24.6
2022-11-07T04:54:12.390Z,24.6
2022-11-07T04:55:15.916Z,24.5
2022-11-07T04:56:18.121Z,24.5
2022-11-07T04:57:20.310Z,24.5
2022-11-07T04:58:22.498Z,24.5
2022-11-07T04:59:25.014Z,24.5
2022-11-07T05:00:27.520Z,24.5
2022-11-07T05:01:30.215Z,24.5
2022-11-07T05:02:32.212Z,24.5
2022-11-07T05:04:39.644Z,24.5
2022-11-07T05:05:41.850Z,24.5
2022-11-07T05:06:44.046Z,24.5
2022-11-07T05:07:46.642Z,24.5
2022-11-07T05:08:49.114Z,24.5
2022-11-07T05:09:51.323Z,24.5
2022-11-07T05:10:53.795Z,24.5
2022-11-07T05:11:55.984Z,24.5
2022-11-07T05:12:57.908Z,24.5
2022-11-07T05:14:00.115Z,24.5
2022-11-07T05:15:02.649Z,24.5
2022-11-07T05:16:05.190Z,24.5
2022-11-07T05:17:07.388Z,24.5
2022-11-07T05:18:09.577Z,24.5
2022-11-07T05:19:12.049Z,24.5
2022-11-07T05:20:14.227Z,24.5
2022-11-07T05:21:16.413Z,24.5
2022-11-07T05:22:18.886Z,24.5
2022-11-07T05:23:22.076Z,24.5
2022-11-07T05:24:24.540Z,24.5
2022-11-07T05:25:26.459Z,24.5
2022-11-07T05:26:28.920Z,24.5
2022-11-07T05:27:31.122Z,24.5
2022-11-07T05:29:38.588Z,24.5
2022-11-07T05:30:41.106Z,24.5
2022-11-07T05:31:43.619Z,24.5
2022-11-07T05:32:46.096Z,24.5
2022-11-07T05:33:48.299Z,24.5
2022-11-07T05:34:50.512Z,24.5
2022-11-07T05:35:52.712Z,24.5
2022-11-07T05:36:54.620Z,24.5
2022-11-07T05:37:57.104Z,24.4
2022-11-07T05:38:59.585Z,24.4
2022-11-07T05:40:01.802Z,24.4
2022-11-07T05:41:03.720Z,24.4
2022-11-07T05:42:05.922Z,24.4
2022-11-07T05:43:07.548Z,24.4
2022-11-07T05:44:09.748Z,24.4
2022-11-07T05:45:11.675Z,24.4
2022-11-07T05:46:13.943Z,24.4
2022-11-07T05:47:16.460Z,24.4
2022-11-07T05:48:18.392Z,24.4
2022-11-07T05:49:20.956Z,24.4
2022-11-07T05:50:23.479Z,24.4
2022-11-07T05:51:25.411Z,24.4
2022-11-07T05:52:27.881Z,24.4
2022-11-07T05:53:30.425Z,24.4
2022-11-07T05:54:33.202Z,24.4
2022-11-07T05:55:34.823Z,24.4
2022-11-07T05:56:37.300Z,24.4
2022-11-07T05:57:39.771Z,24.4
2022-11-07T05:58:41.983Z,24.4
2022-11-07T05:59:44.456Z,24.4
2022-11-07T06:00:46.375Z,24.4
2022-11-07T06:02:54.499Z,24.4
2022-11-07T06:03:57.533Z,24.4
2022-11-07T06:05:00.024Z,24.4
2022-11-07T06:06:01.953Z,24.4
2022-11-07T06:07:04.011Z,24.4
2022-11-07T06:08:05.634Z,24.4
2022-11-07T06:09:08.113Z,24.4
2022-11-07T06:10:10.708Z,24.4
2022-11-07T06:11:12.897Z,24.4
2022-11-07T06:12:15.362Z,24.4
2022-11-07T06:13:19.352Z,24.4
2022-11-07T06:14:21.949Z,24.4
2022-11-07T06:15:24.454Z,24.4
2022-11-07T06:16:26.657Z,24.4
2022-11-07T06:17:28.572Z,24.4
2022-11-07T06:18:31.078Z,24.4
2022-11-07T06:19:33.587Z,24.4
2022-11-07T06:20:35.801Z,24.4
2022-11-07T06:21:38.002Z,24.4
2022-11-07T06:22:40.200Z,24.4
2022-11-07T06:23:42.689Z,24.4
2022-11-07T06:24:44.602Z,24.4
2022-11-07T06:25:46.968Z,24.4
2022-11-07T06:26:49.169Z,24.4
2022-11-07T06:27:51.370Z,24.4
2022-11-07T06:28:53.558Z,24.4
2022-11-07T06:29:55.776Z,24.4
2022-11-07T06:30:58.241Z,24.4
2022-11-07T06:32:00.457Z,24.4
2022-11-07T06:33:02.929Z,24.4
2022-11-07T06:34:04.630Z,24.4
2022-11-07T06:35:07.696Z,24.4
2022-11-07T06:36:09.911Z,24.4
2022-11-07T06:37:12.119Z,24.4
2022-11-07T06:38:14.323Z,24.4
2022-11-07T06:39:16.805Z,24.4
2022-11-07T06:40:19.293Z,24.4
2022-11-07T06:41:21.238Z,24.4
2022-11-07T06:42:23.712Z,24.4
2022-11-07T06:43:27.813Z,24.3
2022-11-07T06:44:33.990Z,24.3
2022-11-07T06:45:36.177Z,24.4
2022-11-07T06:46:38.414Z,24.3
2022-11-07T06:47:40.592Z,24.3
2022-11-07T06:48:42.806Z,24.3
2022-11-07T06:49:45.054Z,24.4
2022-11-07T06:50:47.563Z,24.3
2022-11-07T06:51:49.907Z,24.3
2022-11-07T06:52:52.389Z,24.3
2022-11-07T06:53:54.316Z,24.3
2022-11-07T06:54:56.793Z,24.3
2022-11-07T06:55:58.694Z,24.3
2022-11-07T06:57:01.208Z,24.3
2022-11-07T06:58:03.718Z,24.3
2022-11-07T06:59:06.221Z,24.3
2022-11-07T07:00:08.286Z,24.3
2022-11-07T07:01:11.034Z,24.3
2022-11-07T07:03:19.879Z,24.3
2022-11-07T07:04:22.087Z,24.3
2022-11-07T07:05:24.167Z,24.3
2022-11-07T07:06:26.141Z,24.3
2022-11-07T07:07:28.625Z,24.3
2022-11-07T07:08:31.120Z,24.3
2022-11-07T07:09:33.349Z,24.3
2022-11-07T07:10:35.826Z,24.3
2022-11-07T07:11:38.033Z,24.3
2022-11-07T07:12:40.253Z,24.3
2022-11-07T07:13:42.168Z,24.3
2022-11-07T07:14:43.875Z,24.3
2022-11-07T07:16:51.072Z,24.3
2022-11-07T07:17:53.556Z,24.3
2022-11-07T07:18:55.480Z,24.3
2022-11-07T07:19:57.974Z,24.3
2022-11-07T07:21:00.126Z,24.3
2022-11-07T07:22:02.553Z,24.3
2022-11-07T07:24:09.748Z,24.3
2022-11-07T07:25:11.935Z,24.3
2022-11-07T07:26:13.845Z,24.3
2022-11-07T07:27:16.355Z,24.3
2022-11-07T07:28:18.964Z,24.3
2022-11-07T07:29:21.428Z,24.3
2022-11-07T07:30:23.910Z,24.3
2022-11-07T07:31:26.101Z,24.3
2022-11-07T07:32:28.065Z,24.3
2022-11-07T07:33:30.575Z,24.3
2022-11-07T07:34:32.801Z,24.3
2022-11-07T07:35:34.722Z,24.3
2022-11-07T07:36:37.480Z,24.3
2022-11-07T07:37:39.947Z,24.3
2022-11-07T07:38:42.433Z,24.3
2022-11-07T07:39:44.910Z,24.3
2022-11-07T07:40:46.824Z,24.3
2022-11-07T07:41:49.033Z,24.3
2022-11-07T07:42:51.507Z,24.3
2022-11-07T07:43:54.082Z,24.3
2022-11-07T07:44:56.291Z,24.3
2022-11-07T07:45:58.770Z,24.3
2022-11-07T07:47:01.284Z,24.3
2022-11-07T07:48:10.383Z,24.3
2022-11-07T07:49:12.572Z,24.3
2022-11-07T07:50:14.310Z,24.3
2022-11-07T07:51:16.225Z,24.3
2022-11-07T07:52:18.940Z,24.3
2022-11-07T07:53:21.635Z,24.3
2022-11-07T07:54:23.557Z,24.3
2022-11-07T07:55:25.482Z,24.3
2022-11-07T07:56:27.965Z,24.3
2022-11-07T07:57:29.890Z,24.3
2022-11-07T07:58:32.107Z,24.3
2022-11-07T07:59:34.463Z,24.3
2022-11-07T08:00:37.030Z,24.3
2022-11-07T08:01:40.156Z,24.3
2022-11-07T08:02:42.653Z,24.3
2022-11-07T08:04:49.899Z,24.3
2022-11-07T08:05:52.099Z,24.3
2022-11-07T08:06:54.041Z,24.3
2022-11-07T08:07:56.753Z,24.3
2022-11-07T08:08:59.456Z,24.3
2022-11-07T08:11:06.648Z,24.3
2022-11-07T08:12:08.566Z,24.3
2022-11-07T08:13:11.292Z,24.3
2022-11-07T08:14:13.205Z,24.3
2022-11-07T08:15:15.811Z,24.3
2022-11-07T08:16:18.285Z,24.3
2022-11-07T08:17:20.756Z,24.3
2022-11-07T08:18:22.954Z,24.3
2022-11-07T08:19:25.149Z,24.3
2022-11-07T08:20:27.784Z,24.3
2022-11-07T08:21:30.250Z,24.3
2022-11-07T08:22:32.449Z,24.3
2022-11-07T08:23:34.930Z,24.3
2022-11-07T08:24:37.731Z,24.3
2022-11-07T08:25:39.671Z,24.3
2022-11-07T08:26:41.578Z,24.3
2022-11-07T08:27:44.060Z,24.3
2022-11-07T08:28:46.533Z,24.3
2022-11-07T08:29:48.751Z,24.3
2022-11-07T08:30:50.963Z,24.3
2022-11-07T08:31:53.209Z,24.3
2022-11-07T08:32:55.147Z,24.3
2022-11-07T08:33:57.463Z,24.3
2022-11-07T08:34:59.669Z,24.3
2022-11-07T08:36:01.597Z,24.3
2022-11-07T08:37:03.506Z,24.3
2022-11-07T08:38:05.142Z,24.3
2022-11-07T08:39:07.695Z,24.3
2022-11-07T08:40:09.983Z,24.3
2022-11-07T08:41:12.206Z,24.3
2022-11-07T08:42:19.144Z,24.3
2022-11-07T08:43:21.618Z,24.3
2022-11-07T08:44:23.830Z,24.3
2022-11-07T08:45:26.022Z,24.3
2022-11-07T08:46:28.539Z,24.3
2022-11-07T08:47:30.710Z,24.3
2022-11-07T08:48:33.192Z,24.3
2022-11-07T08:49:35.120Z,24.3
2022-11-07T08:50:37.595Z,24.3
2022-11-07T08:51:39.810Z,24.3
2022-11-07T08:52:42.017Z,24.3
2022-11-07T08:53:44.503Z,24.3
2022-11-07T08:54:46.797Z,24.3
2022-11-07T08:55:49.419Z,24.3
2022-11-07T08:56:51.328Z,24.3
2022-11-07T08:57:53.527Z,24.3
2022-11-07T08:58:56.004Z,24.3
2022-11-07T08:59:57.661Z,24.3
2022-11-07T09:00:59.885Z,24.3
2022-11-07T09:04:12.617Z,24.3
2022-11-07T09:05:14.904Z,24.3
2022-11-07T09:06:17.391Z,24.3
2022-11-07T09:07:19.771Z,24.3
2022-11-07T09:08:22.047Z,24.3
2022-11-07T09:09:24.138Z,24.3
2022-11-07T09:10:26.161Z,24.3
2022-11-07T09:11:28.475Z,24.3
2022-11-07T09:12:30.420Z,24.3
2022-11-07T09:13:32.892Z,24.3
2022-11-07T09:14:34.817Z,24.3
2022-11-07T09:15:36.463Z,24.3
2022-11-07T09:16:38.934Z,24.3
2022-11-07T09:17:40.602Z,24.3
2022-11-07T09:18:42.519Z,24.3
2022-11-07T09:19:44.727Z,24.3
2022-11-07T09:20:47.212Z,24.3
2022-11-07T09:21:49.424Z,24.3
2022-11-07T09:22:51.635Z,24.3
2022-11-07T09:23:53.845Z,24.3
2022-11-07T09:24:56.031Z,24.3
2022-11-07T09:25:58.290Z,24.3
2022-11-07T09:27:00.815Z,24.3
2022-11-07T09:28:03.280Z,24.3
2022-11-07T09:29:05.773Z,24.3
2022-11-07T09:30:08.128Z,24.3
2022-11-07T09:31:10.332Z,24.3
2022-11-07T09:33:18.933Z,24.3
2022-11-07T09:34:21.234Z,24.3
2022-11-07T09:35:23.716Z,24.3
2022-11-07T09:36:26.192Z,24.3
2022-11-07T09:37:28.702Z,24.3
2022-11-07T09:38:31.197Z,24.3
2022-11-07T09:39:33.695Z,24.2
2022-11-07T09:40:35.937Z,24.2
2022-11-07T09:41:38.187Z,24.3
2022-11-07T09:42:40.721Z,24.3
2022-11-07T09:43:43.232Z,24.2
2022-11-07T09:44:45.701Z,24.2
2022-11-07T09:45:48.227Z,24.2
2022-11-07T09:46:50.432Z,24.3
2022-11-07T09:47:52.372Z,24.2
2022-11-07T09:48:54.323Z,24.2
2022-11-07T09:49:56.530Z,24.3
2022-11-07T09:50:59.011Z,24.2
2022-11-07T09:52:01.195Z,24.3
2022-11-07T09:53:03.112Z,24.2
2022-11-07T09:54:05.309Z,24.2
2022-11-07T09:55:07.531Z,24.3
2022-11-07T09:56:09.739Z,24.3
2022-11-07T09:58:17.236Z,24.3
2022-11-07T09:59:19.492Z,24.3
2022-11-07T10:00:22.237Z,24.3
2022-11-07T10:01:25.287Z,24.3
2022-11-07T10:02:28.471Z,24.3
2022-11-07T10:03:31.179Z,24.2
2022-11-07T10:04:33.407Z,24.3
2022-11-07T10:05:35.337Z,24.3
2022-11-07T10:06:37.284Z,24.2
2022-11-07T10:07:39.197Z,24.2
2022-11-07T10:08:41.416Z,24.3
2022-11-07T10:09:43.893Z,24.2
2022-11-07T10:10:45.843Z,24.2
2022-11-07T10:11:47.500Z,24.3
2022-11-07T10:12:49.993Z,24.3
2022-11-07T10:13:52.516Z,24.2
2022-11-07T10:14:55.104Z,24.2
2022-11-07T10:15:57.092Z,24.3
2022-11-07T10:16:59.565Z,24.3
2022-11-07T10:18:01.498Z,24.2
2022-11-07T10:19:03.713Z,24.3
2022-11-07T10:20:05.969Z,24.2
2022-11-07T10:22:13.154Z,24.2
2022-11-07T10:23:17.116Z,24.2
2022-11-07T10:24:20.123Z,24.2
2022-11-07T10:25:22.302Z,24.3
2022-11-07T10:26:24.792Z,24.2
2022-11-07T10:27:27.270Z,24.2
2022-11-07T10:28:29.479Z,24.3
2022-11-07T10:29:32.085Z,24.2
2022-11-07T10:30:34.614Z,24.2
2022-11-07T10:31:36.819Z,24.2
2022-11-07T10:32:39.308Z,24.2
2022-11-07T10:33:41.491Z,24.2
2022-11-07T10:34:43.712Z,24.2
2022-11-07T10:35:50.693Z,24.2
2022-11-07T10:36:52.890Z,24.2
2022-11-07T10:37:55.360Z,24.2
2022-11-07T10:38:57.613Z,24.2
2022-11-07T10:39:59.297Z,24.2
2022-11-07T10:41:01.773Z,24.2
2022-11-07T10:42:04.299Z,24.2
2022-11-07T10:43:06.501Z,24.2
2022-11-07T10:44:08.618Z,24.3
2022-11-07T10:45:11.032Z,24.3
2022-11-07T10:46:13.600Z,24.3
2022-11-07T10:47:15.537Z,24.3
2022-11-07T10:48:19.063Z,24.3
2022-11-07T10:49:22.064Z,24.3
2022-11-07T10:50:24.555Z,24.3
2022-11-07T10:51:27.044Z,24.3
2022-11-07T10:52:29.276Z,24.3
2022-11-07T10:53:31.474Z,24.3
2022-11-07T10:54:33.953Z,24.3
2022-11-07T10:55:36.428Z,24.3
2022-11-07T10:56:38.620Z,24.3
2022-11-07T10:57:40.811Z,24.3
2022-11-07T10:58:43.284Z,24.3
2022-11-07T10:59:45.201Z,24.3
2022-11-07T11:00:47.849Z,24.3
2022-11-07T11:01:50.823Z,24.3
2022-11-07T11:02:53.212Z,24.3
2022-11-07T11:03:55.415Z,24.3
2022-11-07T11:04:57.615Z,24.3
2022-11-07T11:06:00.096Z,24.3
2022-11-07T11:07:02.325Z,24.3
2022-11-07T11:08:04.525Z,24.3
2022-11-07T11:09:06.733Z,24.3
2022-11-07T11:10:08.374Z,24.3
2022-11-07T11:11:10.848Z,24.3
2022-11-07T11:12:13.040Z,24.3
2022-11-07T11:13:15.248Z,24.3
2022-11-07T11:14:17.155Z,24.3
2022-11-07T11:15:19.335Z,24.3
2022-11-07T11:16:21.608Z,24.3
2022-11-07T11:17:24.105Z,24.3
2022-11-07T11:18:26.485Z,24.3
2022-11-07T11:19:28.959Z,24.3
2022-11-07T11:20:30.881Z,24.3
2022-11-07T11:21:33.364Z,24.3
2022-11-07T11:22:35.589Z,24.3
2022-11-07T11:23:37.807Z,24.3
2022-11-07T11:24:39.707Z,24.3
2022-11-07T11:25:42.208Z,24.3
2022-11-07T11:26:44.686Z,24.3
2022-11-07T11:27:47.166Z,24.3
2022-11-07T11:28:49.379Z,24.2
2022-11-07T11:29:51.591Z,24.3
2022-11-07T11:30:54.080Z,24.3
2022-11-07T11:31:56.590Z,24.3
2022-11-07T11:32:59.092Z,24.3
2022-11-07T11:34:01.296Z,24.3
2022-11-07T11:35:03.495Z,24.2
2022-11-07T11:36:05.705Z,24.3
2022-11-07T11:37:07.372Z,24.3
2022-11-07T11:38:09.600Z,24.3
2022-11-07T11:39:12.110Z,24.3
2022-11-07T11:40:14.648Z,24.3
2022-11-07T11:41:17.427Z,24.3
2022-11-07T11:42:19.659Z,24.3
2022-11-07T11:43:21.860Z,24.3
2022-11-07T11:44:24.052Z,24.3
2022-11-07T11:45:26.525Z,24.3
2022-11-07T11:46:28.719Z,24.3
2022-11-07T11:48:36.244Z,24.3
2022-11-07T11:49:38.783Z,24.3
2022-11-07T11:50:41.255Z,24.3
2022-11-07T11:51:43.756Z,24.3
2022-11-07T11:52:46.245Z,24.3
2022-11-07T11:53:48.489Z,24.3
2022-11-07T11:54:50.962Z,24.3
2022-11-07T11:55:53.556Z,24.3
2022-11-07T11:56:55.753Z,24.2
2022-11-07T11:57:58.236Z,24.3
2022-11-07T11:59:00.419Z,24.2
2022-11-07T12:00:03.278Z,24.2
2022-11-07T12:01:05.520Z,24.2
2022-11-07T12:02:07.736Z,24.2
2022-11-07T12:03:09.868Z,24.2
2022-11-07T12:04:12.124Z,24.2
2022-11-07T12:05:14.412Z,24.2
2022-11-07T12:06:16.595Z,24.2
2022-11-07T12:07:18.800Z,24.2
2022-11-07T12:08:21.283Z,24.2
2022-11-07T12:09:23.793Z,24.2
2022-11-07T12:10:25.705Z,24.2
2022-11-07T12:11:28.206Z,24.2
2022-11-07T12:12:30.675Z,24.2
2022-11-07T12:13:33.183Z,24.2
2022-11-07T12:14:35.660Z,24.2
2022-11-07T12:15:38.139Z,24.2
2022-11-07T12:16:40.342Z,24.2
2022-11-07T12:17:42.815Z,24.2
2022-11-07T12:18:45.289Z,24.2
2022-11-07T12:19:47.301Z,24.2
2022-11-07T12:20:49.850Z,24.2
2022-11-07T12:21:52.048Z,24.2
2022-11-07T12:22:54.710Z,24.2
2022-11-07T12:23:56.617Z,24.2
2022-11-07T12:24:58.837Z,24.2
2022-11-07T12:26:01.324Z,24.2
2022-11-07T12:27:03.272Z,24.2
2022-11-07T12:28:05.493Z,24.2
2022-11-07T12:29:07.468Z,24.2
2022-11-07T12:30:09.392Z,24.2
2022-11-07T12:31:11.888Z,24.2
2022-11-07T12:32:13.521Z,24.2
2022-11-07T12:33:16.379Z,24.2
2022-11-07T12:34:20.002Z,24.2
2022-11-07T12:35:21.952Z,24.2
2022-11-07T12:36:24.211Z,24.2
2022-11-07T12:37:26.414Z,24.2
2022-11-07T12:38:28.603Z,24.2
2022-11-07T12:39:31.073Z,24.2
2022-11-07T12:40:33.302Z,24.2
2022-11-07T12:41:35.797Z,24.2
2022-11-07T12:42:38.011Z,24.2
2022-11-07T12:43:39.677Z,24.2
2022-11-07T12:44:42.146Z,24.2
2022-11-07T12:45:44.347Z,24.2
2022-11-07T12:46:46.566Z,24.2
2022-11-07T12:47:48.769Z,24.2
2022-11-07T12:48:50.950Z,24.2
2022-11-07T12:49:53.166Z,24.2
2022-11-07T12:50:55.683Z,24.2
2022-11-07T12:51:58.206Z,24.2
2022-11-07T12:53:00.407Z,24.2
2022-11-07T12:54:02.921Z,24.2
2022-11-07T12:55:05.668Z,24.2
2022-11-07T12:56:08.173Z,24.2
2022-11-07T12:57:10.640Z,24.2
2022-11-07T12:58:12.978Z,24.2
2022-11-07T12:59:15.195Z,24.2
2022-11-07T13:00:17.683Z,24.2
2022-11-07T13:01:20.188Z,24.2
2022-11-07T13:02:23.102Z,24.2
2022-11-07T13:03:25.763Z,24.2
2022-11-07T13:04:27.944Z,24.2
2022-11-07T13:05:30.152Z,24.2
2022-11-07T13:06:32.420Z,24.2
2022-11-07T13:07:34.927Z,24.2
2022-11-07T13:08:37.402Z,24.2
2022-11-07T13:09:39.598Z,24.2
2022-11-07T13:10:42.082Z,24.2
2022-11-07T13:11:44.352Z,24.2
2022-11-07T13:12:46.834Z,24.2
2022-11-07T13:13:48.771Z,24.2
2022-11-07T13:14:51.257Z,24.2
2022-11-07T13:16:58.170Z,24.2
2022-11-07T13:18:00.370Z,24.2
2022-11-07T13:19:02.576Z,24.2
2022-11-07T13:20:05.053Z,24.2
2022-11-07T13:21:07.279Z,24.2
2022-11-07T13:22:09.359Z,24.2
2022-11-07T13:23:11.932Z,24.2
2022-11-07T13:24:14.382Z,24.2
2022-11-07T13:25:18.498Z,24.2
2022-11-07T13:27:25.932Z,24.2
2022-11-07T13:28:28.133Z,24.2
2022-11-07T13:29:30.620Z,24.2
2022-11-07T13:30:32.817Z,24.2
2022-11-07T13:31:35.019Z,24.2
2022-11-07T13:32:36.958Z,24.2
2022-11-07T13:33:39.440Z,24.2
2022-11-07T13:34:41.650Z,24.2
2022-11-07T13:35:43.852Z,24.2
2022-11-07T13:36:46.052Z,24.2
2022-11-07T13:37:48.347Z,24.2
2022-11-07T13:38:51.019Z,24.2
2022-11-07T13:39:53.227Z,24.2
2022-11-07T13:40:55.141Z,24.2
2022-11-07T13:41:57.320Z,24.2
2022-11-07T13:42:59.550Z,24.2
2022-11-07T13:44:01.498Z,24.2
2022-11-07T13:45:03.987Z,24.2
2022-11-07T13:46:06.467Z,24.2
2022-11-07T13:47:09.474Z,24.2
2022-11-07T13:48:12.118Z,24.2
2022-11-07T13:49:14.052Z,24.2
2022-11-07T13:50:16.552Z,24.2
2022-11-07T13:51:18.760Z,24.2
2022-11-07T13:52:21.255Z,24.2
2022-11-07T13:53:23.473Z,24.2
2022-11-07T13:54:26.009Z,24.2
2022-11-07T13:55:27.949Z,24.2
2022-11-07T13:56:30.493Z,24.2
2022-11-07T13:57:32.974Z,24.2
2022-11-07T13:58:34.909Z,24.2
2022-11-07T13:59:38.039Z,24.2
2022-11-07T14:00:40.570Z,24.2
2022-11-07T14:01:43.360Z,24.2
2022-11-07T14:02:46.635Z,24.2
2022-11-07T14:03:49.062Z,24.2
2022-11-07T14:05:55.683Z,24.2
2022-11-07T14:06:57.587Z,24.2
2022-11-07T14:07:59.725Z,24.2
2022-11-07T14:09:02.366Z,24.2
2022-11-07T14:10:04.902Z,24.2
2022-11-07T14:11:07.552Z,24.2
2022-11-07T14:12:10.037Z,24.2
2022-11-07T14:13:12.524Z,24.2
2022-11-07T14:14:14.670Z,24.2
2022-11-07T14:15:16.881Z,24.2
2022-11-07T14:16:19.091Z,24.2